createdAt,value
2018-11-01T00:02:34.142Z,66.80
2018-11-01T00:05:38.040Z,67.37
2018-11-01T00:08:41.462Z,67.25
2018-11-01T00:11:45.001Z,67.38
2018-11-01T00:14:48.473Z,67.90
2018-11-01T00:17:51.946Z,67.57
2018-11-01T00:20:55.445Z,67.75
2018-11-01T00:23:58.862Z,67.35
2018-11-01T00:27:02.353Z,67.17
2018-11-01T00:30:06.467Z,67.29
2018-11-01T00:33:09.995Z,66.97
2018-11-01T00:36:13.514Z,67.01
2018-11-01T00:39:16.982Z,66.51
2018-11-01T00:42:20.368Z,67.04
2018-11-01T00:45:23.810Z,66.78
2018-11-01T00:48:27.320Z,66.86
2018-11-01T00:51:31.001Z,66.91
2018-11-01T00:54:34.506Z,66.72
2018-11-01T00:57:38.120Z,67.10
2018-11-01T01:00:41.664Z,67.14
2018-11-01T01:03:45.258Z,67.03
2018-11-01T01:06:48.753Z,67.63
2018-11-01T01:09:52.224Z,67.38
2018-11-01T01:12:55.686Z,67.79
2018-11-01T01:15:59.110Z,67.54
2018-11-01T01:19:02.606Z,67.95
2018-11-01T01:22:06.405Z,68.34
2018-11-01T01:25:11.982Z,68.00
2018-11-01T01:28:15.500Z,68.31
2018-11-01T01:31:18.894Z,67.81
2018-11-01T01:34:22.342Z,67.83
2018-11-01T01:37:25.827Z,68.57
2018-11-01T01:40:29.301Z,68.86
2018-11-01T01:43:32.693Z,69.07
2018-11-01T01:46:36.181Z,69.18
2018-11-01T01:49:39.581Z,69.74
2018-11-01T01:52:43.704Z,70.02
2018-11-01T01:55:47.116Z,69.71
2018-11-01T01:58:50.526Z,69.79
2018-11-01T02:01:53.916Z,69.91
2018-11-01T02:04:57.302Z,69.79
2018-11-01T02:08:00.733Z,69.67
2018-11-01T02:11:04.497Z,70.01
2018-11-01T02:14:07.923Z,69.72
2018-11-01T02:17:11.356Z,69.79
2018-11-01T02:20:16.056Z,70.01
2018-11-01T02:23:19.493Z,69.87
2018-11-01T02:26:22.934Z,70.66
2018-11-01T02:29:26.368Z,70.90
2018-11-01T02:32:29.750Z,70.99
2018-11-01T02:35:33.223Z,71.29
2018-11-01T02:38:36.742Z,71.60
2018-11-01T02:41:40.412Z,72.71
2018-11-01T02:44:43.937Z,72.65
2018-11-01T02:47:47.465Z,72.99
2018-11-01T02:50:50.958Z,73.76
2018-11-01T02:53:54.460Z,75.57
2018-11-01T02:56:58.007Z,76.59
2018-11-01T03:00:01.750Z,77.44
2018-11-01T03:03:05.590Z,77.89
2018-11-01T03:06:09.080Z,78.72
2018-11-01T03:09:12.612Z,79.37
2018-11-01T03:12:16.095Z,78.60
2018-11-01T03:15:19.592Z,80.12
2018-11-01T03:18:23.130Z,80.57
2018-11-01T03:21:26.524Z,80.48
2018-11-01T03:24:29.980Z,80.68
2018-11-01T03:27:34.530Z,80.35
2018-11-01T03:30:38.276Z,80.85
2018-11-01T03:33:41.754Z,80.25
2018-11-01T03:36:45.409Z,80.07
2018-11-01T03:39:48.992Z,80.92
2018-11-01T03:42:52.449Z,81.73
2018-11-01T03:45:55.989Z,82.60
2018-11-01T03:48:59.563Z,82.34
2018-11-01T03:52:03.115Z,82.09
2018-11-01T03:55:08.734Z,81.77
2018-11-01T03:58:14.308Z,81.23
2018-11-01T04:01:17.778Z,81.17
2018-11-01T04:04:21.316Z,80.77
2018-11-01T04:07:24.818Z,81.41
2018-11-01T04:10:28.292Z,81.12
2018-11-01T04:13:35.102Z,81.66
2018-11-01T04:16:38.858Z,81.76
2018-11-01T04:19:42.169Z,81.47
2018-11-01T04:22:45.688Z,81.47
2018-11-01T04:25:49.367Z,81.75
2018-11-01T04:28:52.911Z,82.11
2018-11-01T04:31:56.387Z,82.83
2018-11-01T04:34:59.877Z,82.78
2018-11-01T04:38:03.412Z,80.94
2018-11-01T04:41:06.970Z,81.59
2018-11-01T04:44:10.553Z,81.90
2018-11-01T04:47:14.074Z,81.70
2018-11-01T04:50:17.658Z,81.60
2018-11-01T04:53:21.111Z,80.79
2018-11-01T04:56:24.635Z,81.48
2018-11-01T04:59:28.105Z,81.19
2018-11-01T05:02:31.624Z,81.71
2018-11-01T05:05:35.127Z,81.76
2018-11-01T05:08:38.646Z,82.70
2018-11-01T05:11:42.133Z,83.11
2018-11-01T05:14:45.623Z,83.12
2018-11-01T05:17:49.226Z,83.55
2018-11-01T05:20:52.740Z,83.78
2018-11-01T05:23:56.349Z,83.56
2018-11-01T05:26:59.857Z,83.61
2018-11-01T05:30:03.510Z,83.66
2018-11-01T05:33:07.991Z,84.18
2018-11-01T05:36:11.479Z,84.36
2018-11-01T05:39:15.046Z,84.31
2018-11-01T05:42:18.824Z,84.20
2018-11-01T05:45:22.355Z,83.72
2018-11-01T05:48:25.813Z,83.84
2018-11-01T05:51:29.383Z,82.44
2018-11-01T05:54:32.902Z,83.67
2018-11-01T05:57:36.638Z,83.85
2018-11-01T06:00:40.420Z,84.51
2018-11-01T06:03:43.937Z,85.13
2018-11-01T06:06:47.482Z,85.68
2018-11-01T06:09:50.941Z,84.53
2018-11-01T06:12:54.489Z,84.96
2018-11-01T06:15:57.982Z,84.81
2018-11-01T06:19:01.440Z,85.68
2018-11-01T06:22:04.961Z,85.79
2018-11-01T06:25:09.408Z,85.17
2018-11-01T06:28:12.922Z,84.55
2018-11-01T06:31:16.395Z,84.38
2018-11-01T06:34:27.398Z,84.42
2018-11-01T06:37:31.903Z,85.57
2018-11-01T06:40:35.454Z,86.70
2018-11-01T06:43:39.038Z,85.96
2018-11-01T06:46:42.608Z,85.87
2018-11-01T06:49:46.083Z,85.87
2018-11-01T06:52:49.587Z,86.00
2018-11-01T06:55:53.086Z,85.94
2018-11-01T06:58:56.652Z,87.27
2018-11-01T07:02:00.263Z,84.02
2018-11-01T07:05:03.752Z,81.63
2018-11-01T07:08:07.212Z,80.62
2018-11-01T07:11:10.841Z,81.08
2018-11-01T07:14:14.328Z,82.99
2018-11-01T07:17:17.909Z,83.79
2018-11-01T07:20:21.320Z,84.22
2018-11-01T07:23:24.870Z,84.21
2018-11-01T07:26:28.514Z,83.66
2018-11-01T07:29:31.945Z,84.67
2018-11-01T07:32:35.552Z,85.00
2018-11-01T07:35:38.925Z,85.16
2018-11-01T07:38:42.484Z,84.57
2018-11-01T07:41:45.925Z,84.20
2018-11-01T07:44:49.425Z,85.07
2018-11-01T07:47:52.959Z,85.57
2018-11-01T07:50:56.433Z,85.81
2018-11-01T07:53:59.955Z,86.23
2018-11-01T07:57:03.497Z,86.62
2018-11-01T08:00:11.228Z,86.85
2018-11-01T08:03:14.646Z,86.60
2018-11-01T08:06:18.356Z,85.47
2018-11-01T08:09:21.909Z,85.55
2018-11-01T08:12:25.401Z,85.67
2018-11-01T08:15:28.864Z,85.71
2018-11-01T08:18:32.406Z,85.76
2018-11-01T08:21:35.910Z,85.67
2018-11-01T08:24:39.416Z,84.42
2018-11-01T08:27:43.475Z,85.19
2018-11-01T08:30:46.907Z,85.06
2018-11-01T08:33:50.432Z,84.74
2018-11-01T08:36:54.044Z,86.53
2018-11-01T08:39:58.744Z,86.80
2018-11-01T08:43:02.251Z,86.10
2018-11-01T08:46:06.558Z,86.23
2018-11-01T08:49:11.036Z,85.93
2018-11-01T08:52:14.489Z,85.83
2018-11-01T08:55:17.995Z,85.65
2018-11-01T08:58:21.565Z,85.78
2018-11-01T09:01:25.126Z,85.90
2018-11-01T09:04:28.644Z,85.90
2018-11-01T09:07:32.120Z,84.90
2018-11-01T09:10:35.654Z,86.13
2018-11-01T09:13:39.036Z,84.76
2018-11-01T09:16:42.900Z,84.47
2018-11-01T09:19:46.282Z,84.26
2018-11-01T09:22:49.686Z,84.59
2018-11-01T09:25:53.092Z,84.23
2018-11-01T09:28:56.590Z,83.00
2018-11-01T09:32:00.050Z,83.36
2018-11-01T09:35:03.855Z,83.43
2018-11-01T09:38:07.318Z,82.64
2018-11-01T09:41:12.990Z,82.14
2018-11-01T09:44:16.469Z,82.17
2018-11-01T09:47:20.165Z,82.23
2018-11-01T09:50:23.347Z,81.86
2018-11-01T09:53:26.771Z,81.88
2018-11-01T09:56:30.178Z,81.96
2018-11-01T09:59:33.553Z,81.97
2018-11-01T10:02:37.027Z,81.05
2018-11-01T10:05:40.503Z,81.28
2018-11-01T10:08:43.851Z,81.30
2018-11-01T10:11:47.289Z,81.10
2018-11-01T10:14:50.713Z,81.45
2018-11-01T10:17:54.744Z,80.99
2018-11-01T10:20:57.755Z,80.64
2018-11-01T10:24:01.456Z,79.99
2018-11-01T10:27:05.666Z,80.09
2018-11-01T10:30:11.221Z,80.48
2018-11-01T10:33:14.712Z,80.89
2018-11-01T10:36:18.190Z,80.21
2018-11-01T10:39:22.220Z,80.50
2018-11-01T10:42:25.659Z,80.13
2018-11-01T10:45:29.186Z,80.55
2018-11-01T10:48:32.903Z,81.20
2018-11-01T10:51:36.497Z,81.21
2018-11-01T10:54:39.974Z,81.46
2018-11-01T10:57:43.876Z,80.53
2018-11-01T11:00:52.770Z,77.84
2018-11-01T11:03:56.313Z,77.98
2018-11-01T11:07:00.036Z,77.57
2018-11-01T11:10:09.227Z,78.82
2018-11-01T11:13:12.741Z,78.79
2018-11-01T11:16:16.286Z,77.60
2018-11-01T11:19:19.963Z,77.67
2018-11-01T11:22:23.489Z,77.45
2018-11-01T11:25:28.035Z,77.23
2018-11-01T11:28:31.581Z,77.35
2018-11-01T11:31:36.308Z,78.05
2018-11-01T11:34:40.014Z,77.60
2018-11-01T11:37:48.147Z,77.57
2018-11-01T11:40:51.927Z,78.87
2018-11-01T11:43:56.187Z,78.89
2018-11-01T11:47:00.169Z,79.67
2018-11-01T11:50:04.298Z,79.01
2018-11-01T11:53:08.061Z,78.73
2018-11-01T11:56:11.643Z,78.09
2018-11-01T11:59:15.181Z,76.67
2018-11-01T12:02:19.848Z,76.28
2018-11-01T12:05:23.674Z,76.63
2018-11-01T12:08:27.125Z,77.04
2018-11-01T12:11:31.628Z,77.12
2018-11-01T12:14:36.017Z,76.75
2018-11-01T12:17:39.512Z,76.90
2018-11-01T12:20:43.175Z,76.13
2018-11-01T12:23:46.660Z,76.92
2018-11-01T12:26:50.168Z,75.71
2018-11-01T12:29:56.972Z,74.13
2018-11-01T12:33:00.599Z,73.88
2018-11-01T12:36:05.392Z,73.63
2018-11-01T12:39:09.012Z,73.40
2018-11-01T12:42:13.652Z,73.76
2018-11-01T12:45:17.163Z,73.25
2018-11-01T12:48:20.776Z,73.83
2018-11-01T12:51:25.256Z,73.88
2018-11-01T12:54:28.812Z,73.89
2018-11-01T12:57:32.360Z,74.34
2018-11-01T13:00:36.072Z,73.95
2018-11-01T13:03:40.657Z,72.48
2018-11-01T13:06:44.099Z,71.60
2018-11-01T13:09:48.606Z,70.76
2018-11-01T13:12:52.292Z,69.82
2018-11-01T13:15:55.754Z,69.93
2018-11-01T13:18:59.476Z,68.92
2018-11-01T13:22:02.963Z,68.84
2018-11-01T13:25:08.413Z,70.01
2018-11-01T13:28:12.039Z,70.19
2018-11-01T13:31:15.504Z,71.07
2018-11-01T13:34:19.171Z,70.77
2018-11-01T13:37:22.813Z,70.71
2018-11-01T13:40:26.696Z,70.79
2018-11-01T13:43:30.055Z,70.75
2018-11-01T13:46:33.641Z,70.09
2018-11-01T13:49:37.267Z,70.69
2018-11-01T13:52:41.863Z,71.01
2018-11-01T13:55:51.957Z,70.96
2018-11-01T13:58:55.610Z,71.19
2018-11-01T14:01:59.310Z,70.05
2018-11-01T14:05:03.217Z,70.36
2018-11-01T14:08:06.824Z,70.88
2018-11-01T14:11:10.269Z,70.96
2018-11-01T14:14:16.096Z,70.78
2018-11-01T14:17:19.389Z,71.22
2018-11-01T14:20:23.104Z,71.32
2018-11-01T14:23:26.672Z,71.57
2018-11-01T14:26:30.163Z,71.66
2018-11-01T14:29:33.651Z,71.59
2018-11-01T14:32:37.233Z,71.71
2018-11-01T14:35:40.792Z,71.90
2018-11-01T14:38:44.383Z,71.92
2018-11-01T14:41:47.909Z,72.23
2018-11-01T14:44:51.498Z,72.35
2018-11-01T14:47:55.127Z,72.08
2018-11-01T14:50:58.630Z,71.92
2018-11-01T14:54:02.777Z,72.18
2018-11-01T14:57:07.023Z,71.97
2018-11-01T15:00:10.448Z,71.84
2018-11-01T15:03:13.949Z,71.94
2018-11-01T15:06:17.473Z,71.41
2018-11-01T15:09:21.023Z,71.81
2018-11-01T15:12:24.581Z,71.77
2018-11-01T15:15:28.092Z,72.17
2018-11-01T15:18:31.694Z,72.06
2018-11-01T15:21:35.264Z,72.46
2018-11-01T15:24:39.709Z,73.02
2018-11-01T15:27:44.069Z,73.08
2018-11-01T15:30:47.726Z,73.25
2018-11-01T15:33:52.421Z,73.26
2018-11-01T15:36:55.960Z,73.28
2018-11-01T15:40:00.830Z,73.30
2018-11-01T15:43:05.047Z,73.44
2018-11-01T15:46:09.334Z,73.65
2018-11-01T15:49:12.847Z,73.60
2018-11-01T15:52:16.376Z,74.07
2018-11-01T15:55:20.903Z,74.81
2018-11-01T15:58:24.780Z,75.18
2018-11-01T16:01:28.496Z,75.33
2018-11-01T16:04:32.083Z,75.65
2018-11-01T16:07:35.595Z,75.70
2018-11-01T16:10:39.081Z,76.02
2018-11-01T16:13:42.704Z,76.66
2018-11-01T16:16:46.304Z,77.26
2018-11-01T16:19:49.896Z,77.12
2018-11-01T16:22:53.408Z,77.05
2018-11-01T16:25:56.975Z,77.14
2018-11-01T16:29:01.394Z,77.35
2018-11-01T16:32:05.025Z,77.58
2018-11-01T16:35:09.218Z,78.24
2018-11-01T16:38:12.833Z,78.31
2018-11-01T16:41:16.339Z,78.54
2018-11-01T16:44:20.998Z,78.86
2018-11-01T16:47:25.681Z,78.78
2018-11-01T16:50:29.335Z,78.99
2018-11-01T16:53:32.905Z,79.84
2018-11-01T16:56:36.444Z,79.54
2018-11-01T16:59:39.950Z,80.32
2018-11-01T17:02:43.488Z,80.50
2018-11-01T17:05:47.247Z,81.54
2018-11-01T17:08:50.867Z,81.80
2018-11-01T17:11:54.523Z,81.26
2018-11-01T17:14:58.279Z,82.03
2018-11-01T17:18:01.811Z,81.59
2018-11-01T17:21:05.451Z,81.74
2018-11-01T17:24:09.105Z,81.58
2018-11-01T17:27:13.685Z,81.22
2018-11-01T17:30:17.328Z,81.54
2018-11-01T17:33:20.935Z,81.56
2018-11-01T17:36:24.599Z,81.74
2018-11-01T17:39:28.315Z,83.12
2018-11-01T17:42:31.910Z,83.23
2018-11-01T17:45:35.476Z,82.55
2018-11-01T17:48:39.192Z,83.72
2018-11-01T17:51:42.763Z,83.86
2018-11-01T17:54:46.437Z,83.52
2018-11-01T17:57:49.884Z,83.23
2018-11-01T18:00:53.477Z,83.21
2018-11-01T18:03:57.572Z,83.36
2018-11-01T18:07:01.191Z,84.41
2018-11-01T18:10:05.132Z,84.31
2018-11-01T18:13:08.693Z,84.55
2018-11-01T18:16:12.239Z,84.39
2018-11-01T18:19:16.053Z,84.85
2018-11-01T18:22:20.785Z,84.65
2018-11-01T18:25:25.660Z,84.02
2018-11-01T18:28:29.200Z,84.21
2018-11-01T18:31:33.945Z,83.73
2018-11-01T18:34:38.166Z,84.40
2018-11-01T18:37:42.512Z,84.98
2018-11-01T18:40:46.182Z,85.18
2018-11-01T18:43:49.865Z,84.58
2018-11-01T18:46:53.582Z,84.26
2018-11-01T18:49:57.097Z,84.96
2018-11-01T18:53:00.644Z,85.16
2018-11-01T18:56:05.665Z,84.75
2018-11-01T18:59:09.225Z,84.51
2018-11-01T19:02:12.835Z,85.23
2018-11-01T19:05:16.541Z,84.71
2018-11-01T19:08:20.092Z,84.76
2018-11-01T19:11:23.711Z,84.10
2018-11-01T19:14:27.411Z,84.30
2018-11-01T19:17:30.940Z,83.92
2018-11-01T19:20:34.797Z,84.23
2018-11-01T19:23:45.137Z,84.42
2018-11-01T19:26:48.999Z,85.37
2018-11-01T19:29:53.571Z,86.20
2018-11-01T19:32:57.085Z,86.96
2018-11-01T19:36:00.557Z,87.78
2018-11-01T19:39:06.109Z,88.82
2018-11-01T19:42:09.670Z,90.52
2018-11-01T19:45:15.256Z,90.55
2018-11-01T19:48:19.984Z,90.91
2018-11-01T19:51:23.415Z,92.45
2018-11-01T19:54:26.929Z,93.31
2018-11-01T19:57:30.721Z,93.42
2018-11-01T20:00:34.209Z,94.11
2018-11-01T20:03:37.711Z,94.20
2018-11-01T20:06:41.363Z,92.65
2018-11-01T20:09:44.967Z,93.24
2018-11-01T20:12:48.832Z,94.17
2018-11-01T20:15:52.355Z,93.97
2018-11-01T20:18:55.985Z,94.87
2018-11-01T20:21:59.480Z,94.84
2018-11-01T20:25:03.078Z,94.93
2018-11-01T20:28:07.122Z,94.06
2018-11-01T20:31:10.842Z,94.59
2018-11-01T20:34:14.642Z,94.82
2018-11-01T20:37:18.206Z,95.09
2018-11-01T20:40:21.687Z,94.77
2018-11-01T20:43:25.619Z,95.38
2018-11-01T20:46:29.328Z,95.46
2018-11-01T20:49:32.907Z,94.91
2018-11-01T20:52:36.489Z,95.10
2018-11-01T20:55:40.169Z,95.61
2018-11-01T20:58:43.994Z,95.80
2018-11-01T21:01:47.688Z,95.80
2018-11-01T21:04:51.476Z,95.75
2018-11-01T21:07:55.045Z,95.45
2018-11-01T21:10:58.735Z,94.97
2018-11-01T21:14:02.613Z,95.15
2018-11-01T21:17:06.615Z,94.42
2018-11-01T21:20:11.376Z,95.77
2018-11-01T21:23:20.873Z,95.54
2018-11-01T21:26:25.563Z,95.67
2018-11-01T21:29:29.107Z,95.46
2018-11-01T21:32:32.713Z,95.66
2018-11-01T21:35:36.267Z,95.67
2018-11-01T21:38:39.926Z,95.52
2018-11-01T21:41:43.745Z,94.92
2018-11-01T21:44:47.449Z,95.20
2018-11-01T21:47:54.807Z,94.94
2018-11-01T21:50:58.487Z,94.39
2018-11-01T21:54:02.109Z,94.30
2018-11-01T21:57:07.020Z,94.26
2018-11-01T22:00:11.206Z,94.10
2018-11-01T22:03:14.804Z,94.36
2018-11-01T22:06:18.350Z,94.34
2018-11-01T22:09:21.947Z,93.95
2018-11-01T22:12:25.958Z,94.24
2018-11-01T22:15:29.803Z,94.35
2018-11-01T22:18:33.405Z,93.89
2018-11-01T22:21:37.181Z,93.96
2018-11-01T22:24:40.859Z,93.53
2018-11-01T22:27:44.435Z,93.32
2018-11-01T22:30:48.206Z,94.25
2018-11-01T22:33:51.701Z,94.31
2018-11-01T22:36:55.286Z,94.57
2018-11-01T22:39:59.073Z,95.01
2018-11-01T22:43:02.648Z,94.89
2018-11-01T22:46:06.344Z,94.34
2018-11-01T22:49:09.852Z,94.20
2018-11-01T22:52:13.331Z,93.92
2018-11-01T22:55:16.840Z,93.80
2018-11-01T22:58:20.746Z,93.65
2018-11-01T23:01:24.181Z,93.92
2018-11-01T23:04:27.780Z,93.81
2018-11-01T23:07:31.317Z,93.50
2018-11-01T23:10:34.870Z,93.21
2018-11-01T23:13:38.351Z,93.14
2018-11-01T23:16:41.929Z,94.12
2018-11-01T23:19:45.585Z,93.67
2018-11-01T23:22:49.029Z,94.04
2018-11-01T23:25:52.573Z,94.45
2018-11-01T23:28:56.050Z,93.97
2018-11-01T23:31:59.541Z,94.42
2018-11-01T23:35:03.051Z,93.92
2018-11-01T23:38:11.913Z,94.16
2018-11-01T23:41:20.543Z,93.86
2018-11-01T23:44:29.310Z,93.12
2018-11-01T23:47:38.328Z,93.50
2018-11-01T23:50:46.998Z,93.47
2018-11-01T23:53:51.509Z,94.09
2018-11-01T23:56:54.976Z,94.05
2018-11-01T23:59:58.511Z,93.42
